createdAt,value
2022-07-26T00:01:39.064Z,14.70
2022-07-26T00:04:06.268Z,14.65
2022-07-26T00:06:33.277Z,14.56
2022-07-26T00:09:00.407Z,14.50
2022-07-26T00:11:28.787Z,14.44
2022-07-26T00:13:55.740Z,14.40
2022-07-26T00:16:23.337Z,14.37
2022-07-26T00:18:50.214Z,14.37
2022-07-26T00:21:17.046Z,14.41
2022-07-26T00:23:44.113Z,14.39
2022-07-26T00:26:10.873Z,14.32
2022-07-26T00:28:37.776Z,14.26
2022-07-26T00:31:04.921Z,14.25
2022-07-26T00:33:31.814Z,14.27
2022-07-26T00:35:58.662Z,14.26
2022-07-26T00:38:25.869Z,14.27
2022-07-26T00:40:53.254Z,14.29
2022-07-26T00:43:20.157Z,14.27
2022-07-26T00:45:47.185Z,14.19
2022-07-26T00:48:14.022Z,14.13
2022-07-26T00:50:43.020Z,14.07
2022-07-26T00:53:10.006Z,14.06
2022-07-26T00:55:36.844Z,14.03
2022-07-26T00:58:03.731Z,14.00
2022-07-26T01:00:30.782Z,13.93
2022-07-26T01:03:00.511Z,13.92
2022-07-26T01:05:27.851Z,13.96
2022-07-26T01:07:55.317Z,13.97
2022-07-26T01:10:22.260Z,13.95
2022-07-26T01:12:49.081Z,13.93
2022-07-26T01:15:17.025Z,13.97
2022-07-26T01:17:44.303Z,13.97
2022-07-26T01:20:13.044Z,13.96
2022-07-26T01:22:40.364Z,13.99
2022-07-26T01:25:07.662Z,14.05
2022-07-26T01:27:39.430Z,14.10
2022-07-26T01:30:11.632Z,14.16
2022-07-26T01:32:38.759Z,14.26
2022-07-26T01:35:07.480Z,14.33
2022-07-26T01:37:34.553Z,14.42
2022-07-26T01:40:01.553Z,14.45
2022-07-26T01:42:28.360Z,14.54
2022-07-26T01:44:55.491Z,14.64
2022-07-26T01:47:22.405Z,14.74
2022-07-26T01:49:49.240Z,14.83
2022-07-26T01:52:16.303Z,14.88
2022-07-26T01:54:43.084Z,14.91
2022-07-26T01:57:09.918Z,14.93
2022-07-26T01:59:36.910Z,14.94
2022-07-26T02:02:03.776Z,14.97
2022-07-26T02:04:49.043Z,15.01
2022-07-26T02:07:16.043Z,15.06
2022-07-26T02:09:42.812Z,15.08
2022-07-26T02:12:09.934Z,15.10
2022-07-26T02:14:36.990Z,15.10
2022-07-26T02:17:04.043Z,15.08
2022-07-26T02:19:31.759Z,15.08
2022-07-26T02:21:59.099Z,15.05
2022-07-26T02:24:30.264Z,15.02
2022-07-26T02:26:58.369Z,14.96
2022-07-26T02:29:26.217Z,14.88
2022-07-26T02:31:54.147Z,14.81
2022-07-26T02:34:20.998Z,14.74
2022-07-26T02:36:48.085Z,14.65
2022-07-26T02:39:15.022Z,14.54
2022-07-26T02:41:42.010Z,14.46
2022-07-26T02:44:10.337Z,14.37
2022-07-26T02:46:38.141Z,14.35
2022-07-26T02:49:05.129Z,14.33
2022-07-26T02:51:32.513Z,14.34
2022-07-26T02:53:59.327Z,14.37
2022-07-26T02:56:26.147Z,14.42
2022-07-26T02:58:53.206Z,14.46
2022-07-26T03:01:20.296Z,14.45
2022-07-26T03:03:50.849Z,14.44
2022-07-26T03:06:19.429Z,14.44
2022-07-26T03:08:47.027Z,14.47
2022-07-26T03:11:14.236Z,14.53
2022-07-26T03:13:41.277Z,14.61
2022-07-26T03:16:08.634Z,14.63
2022-07-26T03:18:35.507Z,14.68
2022-07-26T03:21:03.200Z,14.73
2022-07-26T03:23:33.516Z,14.80
2022-07-26T03:26:02.162Z,14.86
2022-07-26T03:28:31.344Z,14.96
2022-07-26T03:30:58.459Z,15.04
2022-07-26T03:33:25.400Z,15.13
2022-07-26T03:35:52.477Z,15.20
2022-07-26T03:38:19.781Z,15.29
2022-07-26T03:40:46.689Z,15.39
2022-07-26T03:43:13.742Z,15.50
2022-07-26T03:45:42.313Z,15.62
2022-07-26T03:48:09.130Z,15.73
2022-07-26T03:50:36.588Z,15.89
2022-07-26T03:53:04.680Z,16.01
2022-07-26T03:55:50.059Z,16.14
2022-07-26T03:58:19.186Z,16.29
2022-07-26T04:00:46.670Z,16.36
2022-07-26T04:03:13.553Z,16.45
2022-07-26T04:05:40.659Z,16.56
2022-07-26T04:08:15.551Z,16.72
2022-07-26T04:10:46.184Z,16.87
2022-07-26T04:13:13.049Z,16.97
2022-07-26T04:15:39.932Z,16.99
2022-07-26T04:18:06.923Z,17.07
2022-07-26T04:20:33.788Z,17.11
2022-07-26T04:23:00.629Z,17.16
2022-07-26T04:25:27.756Z,17.25
2022-07-26T04:28:08.568Z,17.36
2022-07-26T04:30:35.960Z,17.47
2022-07-26T04:33:03.390Z,17.61
2022-07-26T04:35:30.321Z,17.78
2022-07-26T04:37:57.516Z,17.93
2022-07-26T04:40:25.912Z,18.16
2022-07-26T04:42:52.706Z,18.33
2022-07-26T04:45:20.935Z,18.52
2022-07-26T04:47:50.393Z,18.70
2022-07-26T04:50:19.127Z,18.88
2022-07-26T04:52:46.672Z,19.08
2022-07-26T04:55:13.773Z,19.24
2022-07-26T04:57:41.028Z,19.37
2022-07-26T05:00:26.981Z,19.51
2022-07-26T05:02:59.709Z,19.71
2022-07-26T05:05:29.491Z,19.91
2022-07-26T05:07:58.493Z,20.10
2022-07-26T05:10:35.397Z,20.34
2022-07-26T05:13:04.400Z,20.66
2022-07-26T05:15:36.709Z,20.99
2022-07-26T05:18:10.270Z,21.37
2022-07-26T05:20:38.308Z,21.65
2022-07-26T05:23:05.459Z,21.81
2022-07-26T05:25:32.603Z,22.03
2022-07-26T05:27:59.403Z,22.36
2022-07-26T05:30:26.608Z,22.65
2022-07-26T05:32:53.409Z,22.79
2022-07-26T05:35:20.277Z,22.92
2022-07-26T05:37:47.366Z,23.07
2022-07-26T05:40:14.414Z,23.19
2022-07-26T05:42:41.423Z,23.30
2022-07-26T05:45:09.360Z,23.50
2022-07-26T05:47:36.360Z,23.75
2022-07-26T05:50:04.744Z,23.93
2022-07-26T05:52:32.078Z,24.09
2022-07-26T05:54:58.940Z,24.27
2022-07-26T05:57:25.994Z,24.51
2022-07-26T05:59:53.035Z,24.82
2022-07-26T06:02:20.105Z,25.34
2022-07-26T06:04:47.594Z,25.92
2022-07-26T06:07:15.588Z,26.54
2022-07-26T06:09:42.593Z,27.07
2022-07-26T06:12:09.636Z,27.66
2022-07-26T06:14:36.667Z,28.20
2022-07-26T06:17:04.600Z,28.63
2022-07-26T06:19:31.988Z,29.01
2022-07-26T06:21:59.146Z,29.55
2022-07-26T06:24:26.029Z,30.12
2022-07-26T06:26:57.195Z,30.60
2022-07-26T06:29:32.618Z,31.08
2022-07-26T06:32:00.107Z,31.56
2022-07-26T06:34:27.121Z,32.18
2022-07-26T06:36:54.196Z,32.97
2022-07-26T06:39:21.155Z,33.70
2022-07-26T06:41:47.964Z,34.26
2022-07-26T06:44:15.058Z,34.69
2022-07-26T06:46:41.883Z,34.96
2022-07-26T06:49:08.900Z,35.03
2022-07-26T06:51:35.906Z,34.86
2022-07-26T06:54:03.826Z,35.16
2022-07-26T06:56:32.527Z,35.23
2022-07-26T06:58:59.574Z,35.32
2022-07-26T07:01:58.693Z,35.66
2022-07-26T07:04:13.580Z,35.85
2022-07-26T07:06:40.388Z,35.95
2022-07-26T07:09:08.319Z,35.94
2022-07-26T07:11:35.937Z,35.78
2022-07-26T07:14:03.481Z,36.09
2022-07-26T07:16:30.676Z,36.33
2022-07-26T07:18:57.796Z,36.81
2022-07-26T07:21:24.650Z,36.88
2022-07-26T07:23:51.466Z,36.34
2022-07-26T07:26:20.290Z,35.51
2022-07-26T07:28:47.153Z,34.77
2022-07-26T07:31:15.613Z,33.87
2022-07-26T07:33:52.657Z,33.81
2022-07-26T07:36:21.108Z,33.77
2022-07-26T07:38:49.432Z,33.93
2022-07-26T07:41:16.554Z,34.36
2022-07-26T07:43:43.356Z,34.24
2022-07-26T07:46:10.540Z,34.22
2022-07-26T07:48:43.432Z,34.39
2022-07-26T07:51:13.843Z,34.72
2022-07-26T07:53:40.656Z,35.12
2022-07-26T07:56:08.158Z,35.38
2022-07-26T07:58:35.190Z,35.83
2022-07-26T08:01:02.114Z,36.27
2022-07-26T08:03:38.421Z,36.87
2022-07-26T08:06:08.959Z,37.31
2022-07-26T08:08:37.024Z,37.67
2022-07-26T08:11:07.804Z,37.74
2022-07-26T08:13:35.205Z,37.97
2022-07-26T08:16:02.101Z,38.42
2022-07-26T08:18:29.143Z,38.86
2022-07-26T08:20:57.129Z,39.16
2022-07-26T08:23:24.106Z,39.40
2022-07-26T08:26:01.947Z,39.20
2022-07-26T08:28:48.400Z,38.97
2022-07-26T08:31:16.523Z,38.81
2022-07-26T08:33:45.812Z,38.91
2022-07-26T08:36:14.689Z,39.37
2022-07-26T08:38:41.954Z,39.81
2022-07-26T08:41:09.229Z,41.10
2022-07-26T08:43:52.362Z,42.01
2022-07-26T08:46:26.960Z,42.53
2022-07-26T08:48:55.970Z,42.96
2022-07-26T08:51:25.241Z,43.59
2022-07-26T08:54:04.855Z,43.66
2022-07-26T08:56:37.177Z,44.06
2022-07-26T08:59:20.330Z,43.93
2022-07-26T09:02:07.361Z,43.91
2022-07-26T09:04:43.684Z,43.58
2022-07-26T09:07:11.515Z,42.20
2022-07-26T09:10:03.809Z,42.09
2022-07-26T09:12:31.930Z,42.17
2022-07-26T09:15:01.138Z,42.35
2022-07-26T09:17:49.970Z,42.90
2022-07-26T09:20:24.417Z,42.69
2022-07-26T09:23:08.054Z,42.45
2022-07-26T09:25:40.596Z,42.51
2022-07-26T09:28:33.497Z,41.79
2022-07-26T09:31:03.384Z,42.52
2022-07-26T09:33:47.976Z,42.82
2022-07-26T09:36:15.826Z,42.52
2022-07-26T09:38:48.943Z,42.40
2022-07-26T09:41:23.547Z,42.25
2022-07-26T09:43:54.015Z,41.79
2022-07-26T09:46:23.243Z,41.14
2022-07-26T09:49:09.806Z,40.41
2022-07-26T09:51:39.131Z,40.07
2022-07-26T09:54:07.116Z,40.03
2022-07-26T09:56:44.386Z,39.82
2022-07-26T09:59:14.294Z,40.20
2022-07-26T10:01:42.322Z,41.01
2022-07-26T10:04:10.534Z,41.39
2022-07-26T10:06:37.981Z,40.54
2022-07-26T10:09:05.971Z,40.24
2022-07-26T10:11:41.676Z,40.08
2022-07-26T10:14:34.025Z,39.77
2022-07-26T10:17:21.557Z,39.94
2022-07-26T10:19:58.441Z,39.72
2022-07-26T10:22:27.381Z,38.98
2022-07-26T10:24:58.114Z,39.06
2022-07-26T10:27:42.687Z,39.27
2022-07-26T10:30:18.592Z,39.42
2022-07-26T10:32:51.582Z,39.63
2022-07-26T10:35:31.658Z,39.73
2022-07-26T10:38:00.959Z,40.33
2022-07-26T10:40:30.641Z,41.08
2022-07-26T10:43:39.622Z,41.98
2022-07-26T10:46:17.146Z,42.23
2022-07-26T10:49:06.370Z,41.32
2022-07-26T10:51:37.715Z,41.40
2022-07-26T10:54:10.018Z,41.67
2022-07-26T10:56:38.256Z,41.93
2022-07-26T10:59:06.045Z,42.41
2022-07-26T11:01:41.633Z,42.14
2022-07-26T11:04:19.474Z,42.01
2022-07-26T11:06:46.549Z,41.88
2022-07-26T11:09:13.946Z,40.59
2022-07-26T11:11:47.217Z,39.57
2022-07-26T11:14:18.032Z,38.49
2022-07-26T11:16:50.514Z,38.50
2022-07-26T11:19:24.826Z,38.65
2022-07-26T11:21:59.096Z,38.78
2022-07-26T11:24:26.963Z,38.58
2022-07-26T11:26:55.864Z,38.78
2022-07-26T11:29:37.343Z,39.33
2022-07-26T11:32:18.174Z,39.88
2022-07-26T11:34:45.745Z,39.90
2022-07-26T11:37:13.625Z,40.70
2022-07-26T11:39:40.581Z,40.94
2022-07-26T11:42:09.869Z,41.06
2022-07-26T11:44:37.291Z,41.23
2022-07-26T11:47:15.630Z,41.44
2022-07-26T11:50:01.294Z,41.12
2022-07-26T11:52:31.875Z,40.17
2022-07-26T11:54:59.403Z,39.12
2022-07-26T11:57:31.710Z,38.64
2022-07-26T12:00:00.616Z,38.42
2022-07-26T12:02:30.304Z,37.96
2022-07-26T12:05:14.981Z,37.48
2022-07-26T12:07:57.292Z,37.13
2022-07-26T12:10:24.488Z,36.55
2022-07-26T12:13:10.232Z,36.20
2022-07-26T12:15:53.494Z,36.37
2022-07-26T12:18:31.354Z,36.53
2022-07-26T12:21:05.551Z,36.53
2022-07-26T12:23:48.381Z,36.27
2022-07-26T12:26:34.164Z,35.18
2022-07-26T12:29:19.688Z,35.08
2022-07-26T12:31:47.514Z,35.44
2022-07-26T12:34:21.353Z,35.94
2022-07-26T12:36:48.417Z,36.02
2022-07-26T12:39:22.523Z,35.93
2022-07-26T12:41:50.665Z,35.80
2022-07-26T12:44:17.851Z,35.74
2022-07-26T12:46:45.025Z,35.59
2022-07-26T12:49:12.554Z,35.52
2022-07-26T12:51:40.083Z,35.10
2022-07-26T12:54:07.198Z,34.61
2022-07-26T12:56:34.522Z,34.15
2022-07-26T12:59:01.864Z,34.10
2022-07-26T13:01:30.286Z,34.35
2022-07-26T13:03:57.323Z,34.56
2022-07-26T13:06:24.463Z,34.70
2022-07-26T13:08:51.446Z,34.44
2022-07-26T13:11:18.400Z,34.19
2022-07-26T13:13:45.449Z,34.04
2022-07-26T13:16:12.638Z,34.01
2022-07-26T13:18:39.676Z,34.09
2022-07-26T13:21:06.947Z,34.08
2022-07-26T13:23:34.904Z,34.07
2022-07-26T13:26:02.779Z,33.82
2022-07-26T13:28:30.536Z,33.64
2022-07-26T13:30:57.596Z,33.51
2022-07-26T13:33:24.434Z,33.45
2022-07-26T13:35:51.559Z,33.30
2022-07-26T13:38:19.805Z,33.00
2022-07-26T13:40:47.070Z,32.91
2022-07-26T13:43:14.768Z,32.88
2022-07-26T13:45:41.821Z,32.64
2022-07-26T13:48:08.726Z,32.56
2022-07-26T13:50:35.773Z,32.25
2022-07-26T13:53:02.761Z,31.96
2022-07-26T13:55:29.611Z,31.81
2022-07-26T13:57:58.216Z,31.70
2022-07-26T14:00:27.089Z,31.42
2022-07-26T14:02:55.336Z,31.27
2022-07-26T14:05:23.359Z,30.94
2022-07-26T14:07:50.779Z,30.66
2022-07-26T14:10:18.323Z,30.15
2022-07-26T14:12:49.036Z,29.78
2022-07-26T14:15:21.755Z,29.33
2022-07-26T14:17:50.008Z,29.11
2022-07-26T14:20:20.064Z,28.90
2022-07-26T14:22:47.814Z,28.56
2022-07-26T14:25:14.959Z,28.28
2022-07-26T14:27:41.763Z,27.99
2022-07-26T14:30:08.982Z,27.61
2022-07-26T14:32:36.087Z,27.25
2022-07-26T14:35:03.243Z,26.99
2022-07-26T14:37:43.251Z,26.78
2022-07-26T14:40:17.267Z,26.53
2022-07-26T14:42:45.597Z,26.17
2022-07-26T14:45:13.823Z,26.01
2022-07-26T14:47:41.034Z,25.94
2022-07-26T14:50:09.479Z,25.88
2022-07-26T14:52:42.018Z,25.85
2022-07-26T14:55:09.688Z,25.58
2022-07-26T14:57:39.273Z,25.27
2022-07-26T15:00:11.977Z,25.04
2022-07-26T15:02:44.325Z,24.76
2022-07-26T15:05:12.873Z,24.57
2022-07-26T15:07:41.113Z,24.37
2022-07-26T15:10:10.882Z,24.27
2022-07-26T15:12:38.340Z,24.12
2022-07-26T15:15:07.272Z,24.04
2022-07-26T15:17:34.232Z,23.84
2022-07-26T15:20:01.616Z,23.79
2022-07-26T15:22:29.750Z,23.64
2022-07-26T15:24:56.733Z,23.45
2022-07-26T15:27:23.555Z,23.36
2022-07-26T15:29:51.004Z,23.34
2022-07-26T15:32:20.448Z,23.27
2022-07-26T15:34:47.240Z,23.11
2022-07-26T15:37:14.088Z,23.11
2022-07-26T15:39:41.374Z,22.94
2022-07-26T15:42:09.261Z,22.73
2022-07-26T15:44:38.870Z,22.67
2022-07-26T15:47:06.477Z,22.53
2022-07-26T15:49:34.217Z,22.42
2022-07-26T15:52:10.396Z,22.30
2022-07-26T15:54:37.636Z,22.24
2022-07-26T15:57:04.610Z,22.20
2022-07-26T15:59:31.791Z,22.09
2022-07-26T16:01:58.643Z,22.02
2022-07-26T16:04:25.468Z,21.94
2022-07-26T16:06:52.567Z,21.86
2022-07-26T16:09:20.004Z,21.84
2022-07-26T16:11:48.160Z,21.80
2022-07-26T16:14:16.180Z,21.69
2022-07-26T16:16:43.484Z,21.63
2022-07-26T16:19:11.048Z,21.65
2022-07-26T16:21:38.891Z,21.61
2022-07-26T16:24:07.515Z,21.54
2022-07-26T16:26:35.541Z,21.53
2022-07-26T16:29:03.587Z,21.51
2022-07-26T16:31:30.889Z,21.51
2022-07-26T16:33:58.195Z,21.52
2022-07-26T16:36:25.793Z,21.41
2022-07-26T16:38:52.644Z,21.34
2022-07-26T16:41:19.497Z,21.25
2022-07-26T16:43:46.515Z,21.21
2022-07-26T16:46:13.433Z,21.15
2022-07-26T16:48:40.372Z,21.11
2022-07-26T16:51:07.551Z,21.03
2022-07-26T16:53:34.366Z,20.97
2022-07-26T16:56:01.163Z,20.93
2022-07-26T16:58:28.212Z,20.93
2022-07-26T17:00:55.208Z,20.89
2022-07-26T17:03:22.049Z,20.89
2022-07-26T17:05:49.391Z,20.84
2022-07-26T17:08:16.625Z,20.80
2022-07-26T17:10:44.209Z,20.70
2022-07-26T17:13:11.657Z,20.69
2022-07-26T17:15:38.853Z,20.67
2022-07-26T17:18:05.726Z,20.65
2022-07-26T17:20:32.758Z,20.65
2022-07-26T17:22:59.675Z,20.61
2022-07-26T17:25:26.608Z,20.60
2022-07-26T17:30:20.544Z,20.51
2022-07-26T17:32:47.462Z,20.48
2022-07-26T17:35:14.618Z,20.45
2022-07-26T17:37:41.707Z,20.41
2022-07-26T17:40:09.426Z,20.39
2022-07-26T17:42:37.354Z,20.38
2022-07-26T17:45:05.879Z,20.34
2022-07-26T17:47:32.704Z,20.30
2022-07-26T17:50:26.464Z,20.32
2022-07-26T17:52:50.433Z,20.26
2022-07-26T17:55:21.011Z,20.24
2022-07-26T17:57:49.685Z,20.24
2022-07-26T18:00:20.397Z,20.23
2022-07-26T18:02:48.420Z,20.25
2022-07-26T18:05:16.752Z,20.23
2022-07-26T18:07:43.825Z,20.20
2022-07-26T18:10:11.666Z,20.20
2022-07-26T18:12:38.472Z,20.20
2022-07-26T18:15:07.097Z,20.22
2022-07-26T18:17:34.342Z,20.24
2022-07-26T18:20:01.142Z,20.26
2022-07-26T18:22:27.987Z,20.27
2022-07-26T18:24:54.991Z,20.28
2022-07-26T18:27:22.406Z,20.28
2022-07-26T18:29:50.286Z,20.27
2022-07-26T18:32:19.360Z,20.28
2022-07-26T18:34:52.111Z,20.28
2022-07-26T18:37:20.756Z,20.27
2022-07-26T18:39:48.390Z,20.25
2022-07-26T18:42:15.620Z,20.23
2022-07-26T18:44:42.847Z,20.21
2022-07-26T18:47:09.845Z,20.22
2022-07-26T18:49:36.805Z,20.21
2022-07-26T18:52:08.552Z,20.23
2022-07-26T18:54:36.236Z,20.23
2022-07-26T18:57:03.594Z,20.22
2022-07-26T18:59:31.267Z,20.21
2022-07-26T19:02:00.100Z,20.18
2022-07-26T19:04:28.159Z,20.17
2022-07-26T19:06:55.731Z,20.18
2022-07-26T19:09:22.614Z,20.13
2022-07-26T19:11:49.804Z,20.09
2022-07-26T19:14:17.086Z,20.01
2022-07-26T19:16:43.886Z,19.94
2022-07-26T19:19:11.053Z,19.89
2022-07-26T19:21:40.134Z,19.83
2022-07-26T19:24:07.178Z,19.81
2022-07-26T19:26:34.583Z,19.81
2022-07-26T19:29:01.727Z,19.76
2022-07-26T19:31:28.679Z,19.67
2022-07-26T19:33:55.572Z,19.59
2022-07-26T19:36:26.610Z,19.50
2022-07-26T19:38:55.914Z,19.44
2022-07-26T19:41:23.267Z,19.38
2022-07-26T19:43:50.261Z,19.32
2022-07-26T19:46:17.464Z,19.25
2022-07-26T19:48:44.968Z,19.23
2022-07-26T19:51:12.033Z,19.17
2022-07-26T19:53:38.812Z,19.14
2022-07-26T19:56:07.990Z,19.11
2022-07-26T19:58:34.864Z,19.07
2022-07-26T20:01:02.067Z,19.03
2022-07-26T20:03:29.106Z,18.97
2022-07-26T20:05:56.940Z,18.87
2022-07-26T20:08:24.459Z,18.77
2022-07-26T20:10:51.976Z,18.69
2022-07-26T20:13:19.241Z,18.66
2022-07-26T20:15:47.386Z,18.62
2022-07-26T20:18:14.552Z,18.61
2022-07-26T20:20:41.676Z,18.62
2022-07-26T20:23:11.065Z,18.60
2022-07-26T20:25:38.154Z,18.58
2022-07-26T20:28:05.320Z,18.56
2022-07-26T20:30:32.162Z,18.52
2022-07-26T20:32:59.242Z,18.51
2022-07-26T20:35:26.133Z,18.49
2022-07-26T20:37:53.012Z,18.45
2022-07-26T20:40:20.548Z,18.44
2022-07-26T20:42:50.334Z,18.36
2022-07-26T20:45:17.775Z,18.32
2022-07-26T20:47:44.829Z,18.31
2022-07-26T20:50:12.776Z,18.28
2022-07-26T20:52:40.132Z,18.26
2022-07-26T20:55:07.691Z,18.20
2022-07-26T20:57:34.777Z,18.17
2022-07-26T21:00:01.956Z,18.14
2022-07-26T21:02:29.148Z,18.12
2022-07-26T21:04:56.128Z,18.07
2022-07-26T21:07:24.274Z,18.04
2022-07-26T21:10:12.023Z,17.98
2022-07-26T21:12:38.874Z,17.94
2022-07-26T21:15:06.253Z,17.87
2022-07-26T21:17:34.805Z,17.86
2022-07-26T21:20:02.967Z,17.81
2022-07-26T21:22:29.991Z,17.80
2022-07-26T21:24:57.219Z,17.77
2022-07-26T21:27:24.048Z,17.73
2022-07-26T21:29:50.995Z,17.73
2022-07-26T21:32:17.991Z,17.68
2022-07-26T21:34:44.899Z,17.66
2022-07-26T21:37:11.740Z,17.57
2022-07-26T21:39:38.745Z,17.54
2022-07-26T21:42:05.570Z,17.52
2022-07-26T21:44:32.358Z,17.50
2022-07-26T21:46:59.471Z,17.50
2022-07-26T21:49:26.357Z,17.47
2022-07-26T21:51:53.285Z,17.45
2022-07-26T21:54:20.346Z,17.44
2022-07-26T21:56:47.155Z,17.40
2022-07-26T21:59:14.502Z,17.40
2022-07-26T22:01:42.805Z,17.40
2022-07-26T22:04:10.283Z,17.42
2022-07-26T22:06:37.825Z,17.40
2022-07-26T22:09:05.195Z,17.39
2022-07-26T22:11:32.041Z,17.41
2022-07-26T22:13:58.856Z,17.42
2022-07-26T22:16:25.923Z,17.41
2022-07-26T22:18:52.752Z,17.40
2022-07-26T22:21:19.620Z,17.37
2022-07-26T22:23:46.714Z,17.37
2022-07-26T22:26:14.340Z,17.32
2022-07-26T22:28:41.204Z,17.33
2022-07-26T22:31:08.391Z,17.33
2022-07-26T22:33:35.229Z,17.30
2022-07-26T22:36:02.016Z,17.28
2022-07-26T22:38:30.432Z,17.23
2022-07-26T22:40:57.325Z,17.24
2022-07-26T22:43:24.092Z,17.27
2022-07-26T22:45:51.508Z,17.26
2022-07-26T22:48:18.507Z,17.28
2022-07-26T22:50:45.455Z,17.29
2022-07-26T22:53:12.601Z,17.27
2022-07-26T22:55:39.500Z,17.28
2022-07-26T22:58:06.348Z,17.28
2022-07-26T23:00:33.445Z,17.27
2022-07-26T23:03:00.275Z,17.28
2022-07-26T23:05:36.073Z,17.30
2022-07-26T23:08:36.267Z,17.29
2022-07-26T23:10:59.761Z,17.25
2022-07-26T23:13:26.763Z,17.22
2022-07-26T23:15:58.137Z,17.24
2022-07-26T23:18:27.319Z,17.21
2022-07-26T23:20:54.108Z,17.20
2022-07-26T23:23:20.950Z,17.21
2022-07-26T23:25:47.943Z,17.21
2022-07-26T23:28:24.753Z,17.22
2022-07-26T23:31:14.398Z,17.23
2022-07-26T23:33:52.775Z,17.25
2022-07-26T23:36:26.192Z,17.23
2022-07-26T23:38:57.536Z,17.24
2022-07-26T23:41:25.358Z,17.22
2022-07-26T23:43:53.065Z,17.24
2022-07-26T23:46:20.799Z,17.22
2022-07-26T23:48:48.207Z,17.20
2022-07-26T23:51:15.375Z,17.21
2022-07-26T23:53:42.438Z,17.21
2022-07-26T23:56:09.806Z,17.21
2022-07-26T23:58:36.717Z,17.21
